Latest  Newer  Older  Last 2 hours slideshow  Last 24 hours slideshow  Refresh every 5 minutes 
Current image  Latest image  Rain/snow radar  Cloud coverage sat images 

All time is UTC (add 2 hours to UTC in wintertime, 3 hours to UTC in DST for Latvia local time)

2021/05/10 02:50 EVRA 100250Z 18008KT CAVOK 09/03 Q1016 NOSIG
2021/05/10 02:50 EVLA 100250Z AUTO 16009KT 9999 NCD 11/04 Q1013
2021/05/10 02:50 EVVA 100250Z AUTO 15005KT CAVOK 10/06 Q1013
2021/05/10 02:50 EYKA 100250Z 15010KT CAVOK 11/01 Q1019
2021/05/10 02:50 EYPA 100250Z 14009KT CAVOK 11/04 Q1014
2021/05/10 02:50 EYSA 100250Z 17012KT CAVOK 09/02 Q1017 BLU NOSIG
2021/05/10 02:50 EYVI 100250Z 16009KT CAVOK 08/00 Q1021 NOSIG
2021/05/09 15:20 EEKA 091520Z 16012KT CAVOK 09/03 Q1016
2021/05/10 02:20 EEKE 100220Z AUTO 22005KT 180V280 9999NDV NSC 09/05 Q1012

2021/05/10 02:50 EETN 100250Z 18009KT 9999 FEW040 09/04 Q1013
2021/05/10 02:20 EETU 100220Z AUTO 17010KT 9999 OVC049/// 10/02 Q1016
   RIGA AIRPORT     EVRA               56 55N  023 58E   10   X     T          6 LV
   LIEPAJA INTL     EVLA        26406  56 31N  021 06E    4   X                8 LV
   VENTPILS         EVVA               57 21N  021 33E    6   X                8 LV
   KAUNAS           EYKA               54 54N  023 55E   77   X     T          6 LT
   PALANGA INTL     EYPA               55 55N  021 03E   10   X                6 LT
   SIAULIAI INTL    EYSA               55 54N  023 24E  135   X     T          6 LT
   VILNIUS INTL     EYVI        26730  54 38N  025 17E  197   X     T          6 LT
   KARDLA           EEKA        26116  58 59N  022 50E    4   X                8 EE
   KURESSAARE       EEKE               58 14N  022 31E    4   X                8 EE
   PARNU            EEPU               58 25N  024 28E   14   X                8 EE
   TALLINN          EETN        26038  59 24N  024 49E   40   X     T          8 EE
   TARTU            EETU               58 19N  026 41E   67   X                8 EE